Time;durP1;ratioP1;P1;durP2;ratioP2;P2;SDS_P1;SDS_P2;PMS_P1;PMS_P2;Temp;Humidity;BMP_temperature;BMP_pressure;BME280_temperature;BME280_humidity;BME280_pressure;Samples;Min_cycle;Max_cycle;Signal;HPM_P1;HPM_P2
2021/01/06 00:01:22;;;;;;;24.88;10.15;;;;;;;2.00;95.39;97173.84;5026239;28;20033;-61
2021/01/06 00:03:49;;;;;;;17.30;8.48;;;;;;;1.95;94.96;97171.25;5044759;28;20056;-59
2021/01/06 00:06:16;;;;;;;16.52;6.72;;;;;;;1.80;95.79;97196.22;5044057;28;20033;-60
2021/01/06 00:08:45;;;;;;;9.73;5.55;;;;;;;0.69;98.42;97039.81;5045017;28;20462;-61
2021/01/06 00:11:11;;;;;;;16.67;7.57;;;;;;;1.78;98.40;97199.25;5026512;28;20086;-60
2021/01/06 00:13:36;;;;;;;13.90;5.90;;;;;;;1.65;97.07;97155.63;5045326;28;20873;-59
2021/01/06 00:16:03;;;;;;;26.15;9.88;;;;;;;1.46;95.91;97123.88;5026395;28;20076;-60
2021/01/06 00:18:28;;;;;;;34.25;13.30;;;;;;;1.82;94.89;97199.44;5045106;28;20033;-61
2021/01/06 00:20:55;;;;;;;32.70;14.10;;;;;;;1.38;94.80;97146.44;5026430;28;20510;-59
2021/01/06 00:23:20;;;;;;;32.55;13.52;;;;;;;1.78;95.46;97226.56;5044892;28;20029;-60
2021/01/06 00:25:46;;;;;;;29.23;11.50;;;;;;;1.73;95.92;97212.22;5044570;28;20043;-60
2021/01/06 00:28:14;;;;;;;31.02;14.05;;;;;;;1.69;96.85;97205.78;5041337;28;20091;-59
2021/01/06 00:30:48;;;;;;;17.15;7.82;;;;;;;1.63;96.83;97212.47;5006380;28;20041;-59
2021/01/06 00:33:20;;;;;;;14.85;6.47;;;;;;;1.26;97.79;97154.38;5007062;28;20033;-59
2021/01/06 00:36:16;;;;;;;17.08;7.85;;;;;;;1.66;98.16;97218.09;5006228;28;20038;-60
2021/01/06 00:38:41;;;;;;;19.42;9.95;;;;;;;1.75;98.31;97220.91;5019410;28;20071;-59
2021/01/06 00:41:07;;;;;;;28.95;11.45;;;;;;;1.07;97.45;97118.28;5038441;28;20031;-59
2021/01/06 00:43:33;;;;;;;35.78;13.13;;;;;;;1.47;96.96;97180.06;5026308;28;20036;-59
2021/01/06 00:45:58;;;;;;;28.02;14.90;;;;;;;1.69;97.04;97212.03;5043782;28;20506;-59
2021/01/06 00:48:24;;;;;;;38.35;13.18;;;;;;;1.83;96.81;97229.19;5044515;28;20021;-59
2021/01/06 00:50:50;;;;;;;36.95;14.45;;;;;;;1.26;96.46;97143.47;5025977;28;20044;-59
2021/01/06 00:53:18;;;;;;;31.70;12.07;;;;;;;1.91;96.18;97230.34;5044460;28;20487;-60
2021/01/06 00:55:45;;;;;;;29.75;12.75;;;;;;;1.88;95.48;97220.06;5025508;28;20439;-60
2021/01/06 00:58:11;;;;;;;43.33;13.77;;;;;;;1.94;94.95;97230.53;5044175;28;20041;-60
2021/01/06 01:00:37;;;;;;;43.80;17.63;;;;;;;0.92;94.91;97083.16;5044114;28;20037;-59
2021/01/06 01:03:02;;;;;;;57.53;20.30;;;;;;;1.92;95.83;97237.41;5044349;28;20553;-60
2021/01/06 01:05:31;;;;;;;32.90;14.57;;;;;;;1.95;95.20;97225.88;5044118;28;20595;-60
2021/01/06 01:07:58;;;;;;;40.80;14.35;;;;;;;1.95;94.59;97239.53;5026126;28;20031;-61
2021/01/06 01:10:28;;;;;;;23.85;8.60;;;;;;;2.03;94.81;97236.03;5025827;28;20041;-60
2021/01/06 01:12:54;;;;;;;17.67;6.97;;;;;;;1.93;94.53;97228.13;5026049;28;20059;-60
2021/01/06 01:15:25;;;;;;;24.17;9.55;;;;;;;1.96;95.43;97211.13;5043138;28;20053;-61
2021/01/06 01:17:50;;;;;;;25.10;10.73;;;;;;;1.94;95.47;97229.72;5046127;28;20025;-60
2021/01/06 01:20:17;;;;;;;24.70;9.63;;;;;;;1.96;95.72;97206.44;5047739;28;20037;-60
2021/01/06 01:22:43;;;;;;;23.85;8.98;;;;;;;0.70;95.70;97009.53;5048051;28;20066;-60
2021/01/06 01:25:10;;;;;;;31.35;12.65;;;;;;;1.81;96.39;97219.66;5029001;28;20025;-60
2021/01/06 01:27:37;;;;;;;28.00;9.25;;;;;;;1.87;96.41;97208.31;5029545;28;20606;-60
2021/01/06 01:30:03;;;;;;;26.30;9.90;;;;;;;1.79;96.61;97213.72;5047525;28;20091;-60
2021/01/06 01:32:28;;;;;;;17.02;7.68;;;;;;;1.81;96.52;97222.38;5047348;28;20104;-60
2021/01/06 01:34:54;;;;;;;21.63;8.68;;;;;;;1.85;96.18;97226.13;5047794;28;20452;-60
2021/01/06 01:37:19;;;;;;;21.33;7.88;;;;;;;1.28;96.17;97141.22;5047431;28;20033;-60
2021/01/06 01:39:45;;;;;;;25.25;10.55;;;;;;;1.53;95.67;97181.53;5029456;28;20045;-60
2021/01/06 01:42:10;;;;;;;22.88;10.63;;;;;;;1.81;96.03;97227.84;5046884;28;20036;-60
2021/01/06 01:44:54;;;;;;;9.05;4.28;;;;;;;1.72;96.49;97246.91;5047600;28;20045;-60
2021/01/06 01:47:25;;;;;;;13.40;5.97;;;;;;;1.84;96.34;97240.88;5047240;28;20299;-60
2021/01/06 01:49:50;;;;;;;11.23;5.20;;;;;;;1.85;95.54;97258.91;5047413;28;20427;-61
2021/01/06 01:52:30;;;;;;;69.65;28.13;;;;;;;1.91;95.97;97258.47;5028558;28;20033;-60
2021/01/06 01:55:00;;;;;;;10.13;4.93;;;;;;;1.97;95.90;97245.50;5047455;28;20110;-60
2021/01/06 01:57:31;;;;;;;10.80;4.43;;;;;;;1.93;94.45;97239.06;5046640;28;20045;-60
2021/01/06 02:00:19;;;;;;;7.70;3.05;;;;;;;1.64;94.65;97216.81;5045542;28;20036;-61
2021/01/06 02:03:20;;;;;;;6.25;3.03;;;;;;;1.82;95.49;97248.59;5047191;28;20037;-59
2021/01/06 02:05:54;;;;;;;8.02;4.47;;;;;;;1.78;94.16;97237.47;5025805;28;20541;-59
2021/01/06 02:08:33;;;;;;;21.13;7.35;;;;;;;1.74;94.77;97233.75;5047040;28;20039;-58
2021/01/06 02:11:16;;;;;;;13.25;5.45;;;;;;;1.61;95.13;97231.88;5045253;28;20033;-60
2021/01/06 02:13:53;;;;;;;13.25;5.55;;;;;;;1.60;95.11;97224.78;5047136;28;20055;-60
2021/01/06 02:16:32;;;;;;;18.42;8.77;;;;;;;1.53;95.28;97263.44;5046502;28;20041;-59
2021/01/06 02:18:58;;;;;;;23.40;9.00;;;;;;;1.54;95.80;97240.50;5047279;28;20546;-60
2021/01/06 02:21:27;;;;;;;19.60;7.70;;;;;;;1.51;96.34;97249.31;5046533;28;20036;-59
2021/01/06 02:23:55;;;;;;;27.30;10.05;;;;;;;1.22;97.17;97177.09;5046711;28;20440;-60
2021/01/06 02:26:21;;;;;;;12.77;6.45;;;;;;;1.64;98.42;97241.38;5046103;28;20032;-61
2021/01/06 02:28:48;;;;;;;13.10;6.30;;;;;;;1.67;98.65;97232.56;5046235;28;20039;-61
2021/01/06 02:31:14;;;;;;;18.65;7.97;;;;;;;0.69;99.20;97070.63;5046000;28;20032;-60
2021/01/06 02:33:40;;;;;;;39.03;14.55;;;;;;;1.82;98.77;97221.28;5028071;28;20029;-59
2021/01/06 02:36:06;;;;;;;32.47;12.45;;;;;;;0.82;97.79;97056.13;5045378;28;20067;-60
2021/01/06 02:38:32;;;;;;;25.67;12.30;;;;;;;1.98;97.06;97219.78;5045202;28;20479;-62
2021/01/06 02:40:59;;;;;;;25.15;12.20;;;;;;;1.26;95.67;97105.28;5038915;28;20052;-59
2021/01/06 02:43:27;;;;;;;22.15;10.85;;;;;;;2.04;95.27;97229.50;5046329;28;20488;-60
2021/01/06 02:45:53;;;;;;;36.28;15.93;;;;;;;2.06;95.21;97205.38;5045556;28;20056;-62
2021/01/06 02:48:19;;;;;;;54.40;23.45;;;;;;;2.12;95.26;97204.16;5046209;28;20029;-61
2021/01/06 02:50:48;;;;;;;48.42;21.60;;;;;;;2.11;95.37;97213.44;5045775;28;20044;-60
2021/01/06 02:53:20;;;;;;;44.67;20.35;;;;;;;2.09;96.12;97219.22;5046016;28;20021;-61
2021/01/06 02:55:48;;;;;;;27.23;13.65;;;;;;;1.73;95.49;97190.38;5027638;28;20080;-60
2021/01/06 02:58:17;;;;;;;26.33;11.85;;;;;;;1.41;94.93;97118.53;5027990;28;20112;-60
2021/01/06 03:00:43;;;;;;;27.17;11.80;;;;;;;2.27;93.95;97211.94;5027470;28;20319;-59
2021/01/06 03:03:12;;;;;;;24.65;11.13;;;;;;;1.82;93.75;97178.38;5028115;28;20062;-60
2021/01/06 03:05:40;;;;;;;31.70;11.25;;;;;;;2.22;93.62;97209.34;5045788;28;20127;-59
2021/01/06 03:08:08;;;;;;;38.00;11.68;;;;;;;2.28;93.89;97208.09;5045701;28;20122;-60
2021/01/06 03:10:34;;;;;;;31.45;11.57;;;;;;;1.55;93.87;97102.09;5045904;28;20468;-60
2021/01/06 03:12:59;;;;;;;102.15;25.50;;;;;;;1.60;93.74;97136.66;5028240;28;20028;-60
2021/01/06 03:15:27;;;;;;;155.88;36.08;;;;;;;1.41;93.64;97101.34;5045567;28;20095;-60
2021/01/06 03:17:54;;;;;;;46.90;14.98;;;;;;;2.16;93.31;97210.59;5027551;28;20803;-60
2021/01/06 03:20:25;;;;;;;79.65;19.50;;;;;;;2.09;93.90;97212.94;5045368;28;20122;-60
2021/01/06 03:22:59;;;;;;;21.83;8.88;;;;;;;2.24;92.40;97215.31;5045673;28;20029;-61
2021/01/06 03:25:24;;;;;;;25.75;10.20;;;;;;;1.98;93.13;97225.25;5027327;28;20123;-60
2021/01/06 03:27:53;;;;;;;38.10;12.98;;;;;;;1.92;94.16;97200.00;5045641;28;20541;-60
2021/01/06 03:30:25;;;;;;;36.72;11.77;;;;;;;2.11;94.97;97218.91;5045408;28;20048;-60
2021/01/06 03:33:09;;;;;;;64.18;19.48;;;;;;;2.07;95.54;97221.44;5027207;28;20025;-59
2021/01/06 03:35:46;;;;;;;126.85;29.65;;;;;;;2.14;96.48;97219.09;5044920;28;20037;-60
2021/01/06 03:38:38;;;;;;;78.10;21.92;;;;;;;2.06;97.30;97222.59;5045125;28;20518;-61
2021/01/06 03:41:06;;;;;;;29.73;11.82;;;;;;;2.07;98.35;97223.41;5041982;28;20048;-60
2021/01/06 03:43:35;;;;;;;15.05;6.30;;;;;;;1.89;97.45;97210.72;5025423;28;20064;-61
2021/01/06 03:46:04;;;;;;;14.63;6.30;;;;;;;2.05;97.54;97220.16;5023140;28;20081;-61
2021/01/06 03:48:51;;;;;;;14.23;6.40;;;;;;;2.07;97.63;97224.19;5007252;28;20052;-60
2021/01/06 03:51:26;;;;;;;16.75;7.95;;;;;;;2.11;97.67;97218.91;5024622;28;20599;-60
2021/01/06 03:53:57;;;;;;;18.67;12.07;;;;;;;2.13;97.28;97217.50;5025214;28;20470;-60
2021/01/06 03:56:26;;;;;;;20.83;12.73;;;;;;;2.14;97.06;97196.44;5024170;28;20044;-61
2021/01/06 03:59:01;;;;;;;16.75;9.18;;;;;;;2.27;96.63;97222.88;5025120;28;20045;-60
2021/01/06 04:01:38;;;;;;;18.67;8.88;;;;;;;2.43;95.29;97215.91;5006547;28;20038;-60
2021/01/06 04:04:14;;;;;;;18.98;9.18;;;;;;;1.85;93.78;97134.06;5006951;28;20069;-60
2021/01/06 04:06:42;;;;;;;209.75;56.45;;;;;;;2.47;93.71;97234.09;5025042;28;20044;-60
2021/01/06 04:09:19;;;;;;;338.23;94.22;;;;;;;2.36;94.09;97237.38;5007163;28;20052;-60
2021/01/06 04:11:52;;;;;;;72.55;22.63;;;;;;;1.87;96.43;97241.06;5024851;28;20527;-60
2021/01/06 04:14:17;;;;;;;202.07;54.33;;;;;;;2.14;95.31;97229.22;5025145;28;20041;-60
2021/01/06 04:16:43;;;;;;;179.48;50.00;;;;;;;1.73;95.31;97163.06;5024753;28;20416;-61
2021/01/06 04:19:08;;;;;;;128.20;38.20;;;;;;;2.03;96.25;97216.94;5024832;28;20124;-61
2021/01/06 04:21:34;;;;;;;91.35;26.95;;;;;;;1.50;95.07;97116.66;5024381;28;20029;-60
2021/01/06 04:23:59;;;;;;;26.20;10.40;;;;;;;1.91;95.44;97224.88;5007006;28;20048;-61
2021/01/06 04:26:25;;;;;;;21.33;8.55;;;;;;;1.72;97.43;97222.34;5023879;28;20028;-60
2021/01/06 04:28:50;;;;;;;35.67;16.23;;;;;;;1.83;97.30;97225.63;5006333;28;20096;-60
2021/01/06 04:31:20;;;;;;;25.23;12.85;;;;;;;1.93;96.90;97228.91;5024281;28;20060;-60
2021/01/06 04:33:47;;;;;;;14.40;8.32;;;;;;;2.00;96.46;97244.88;5006720;28;20076;-60
2021/01/06 04:36:14;;;;;;;51.33;22.17;;;;;;;2.04;96.81;97245.88;5023858;28;20036;-60
2021/01/06 04:38:46;;;;;;;38.88;22.00;;;;;;;2.03;97.07;97249.72;5024194;28;20037;-59
2021/01/06 04:41:42;;;;;;;35.42;19.23;;;;;;;2.11;96.02;97246.22;5033955;28;20025;-60
2021/01/06 04:44:34;;;;;;;25.70;12.70;;;;;;;2.15;97.31;97258.16;5044221;28;20581;-60
2021/01/06 04:47:37;;;;;;;25.83;13.80;;;;;;;2.22;96.26;97251.13;5025624;28;20534;-59
2021/01/06 04:50:47;;;;;;;22.47;11.77;;;;;;;2.29;95.96;97247.97;5026140;28;20107;-59
2021/01/06 04:53:12;;;;;;;32.03;17.25;;;;;;;2.27;96.71;97239.28;5030256;28;20041;-60
2021/01/06 04:56:17;;;;;;;78.60;36.90;;;;;;;2.40;96.20;97232.91;5048063;28;20546;-59
2021/01/06 04:59:04;;;;;;;91.70;38.08;;;;;;;2.39;96.57;97242.22;5019704;28;20507;-61
2021/01/06 05:02:02;;;;;;;90.35;38.33;;;;;;;2.51;96.09;97240.53;5029260;28;20055;-59
2021/01/06 05:05:05;;;;;;;69.45;30.98;;;;;;;2.50;95.78;97243.56;5048193;28;20653;-60
2021/01/06 05:07:36;;;;;;;55.58;27.90;;;;;;;2.12;96.01;97242.41;5047992;28;20491;-60
2021/01/06 05:10:36;;;;;;;45.28;24.67;;;;;;;2.11;98.25;97243.50;5047927;28;20051;-59
2021/01/06 05:13:24;;;;;;;48.67;28.23;;;;;;;2.23;97.16;97249.22;5048150;28;20475;-61
2021/01/06 05:15:55;;;;;;;40.00;21.25;;;;;;;2.21;95.29;97246.00;5028919;28;20049;-59
2021/01/06 05:18:20;;;;;;;25.20;13.10;;;;;;;2.23;95.02;97254.69;5029713;28;20474;-60
2021/01/06 05:20:46;;;;;;;21.52;11.40;;;;;;;1.95;94.04;97244.97;5047886;28;20037;-59
2021/01/06 05:23:18;;;;;;;37.65;23.92;;;;;;;2.15;94.58;97269.09;5030044;28;20037;-61
2021/01/06 05:25:44;;;;;;;30.80;13.48;;;;;;;2.29;94.03;97250.69;5032015;28;20041;-60
2021/01/06 05:28:18;;;;;;;52.83;23.20;;;;;;;1.45;93.94;97092.22;5028055;28;20029;-60
2021/01/06 05:30:47;;;;;;;193.27;67.07;;;;;;;2.44;94.10;97251.13;5009547;28;20144;-62
2021/01/06 05:33:20;;;;;;;60.70;25.50;;;;;;;2.54;92.83;97255.50;5027878;28;20029;-60
2021/01/06 05:35:47;;;;;;;67.13;24.23;;;;;;;1.65;93.17;97128.31;5009107;28;20115;-60
2021/01/06 05:38:13;;;;;;;42.63;20.20;;;;;;;1.80;93.71;97171.63;5026228;28;20563;-60
2021/01/06 05:40:41;;;;;;;43.00;18.65;;;;;;;2.36;93.75;97248.31;5029930;28;20033;-60
2021/01/06 05:43:18;;;;;;;41.88;19.17;;;;;;;2.43;93.13;97254.97;5047478;28;20555;-60
2021/01/06 05:45:56;;;;;;;37.88;16.95;;;;;;;2.45;93.13;97255.44;5028507;28;20110;-60
2021/01/06 05:48:30;;;;;;;43.53;16.73;;;;;;;2.28;93.15;97262.72;5047416;28;20033;-60
2021/01/06 05:51:11;;;;;;;39.72;15.60;;;;;;;2.23;94.34;97265.63;5046679;28;20049;-60
2021/01/06 05:54:17;;;;;;;59.00;23.65;;;;;;;2.37;94.75;97263.63;5047282;28;20029;-60
2021/01/06 05:56:52;;;;;;;72.97;30.63;;;;;;;2.42;94.34;97266.22;5047149;28;20033;-60
2021/01/06 05:59:23;;;;;;;141.30;41.47;;;;;;;2.57;95.06;97257.63;5047282;28;20045;-60
2021/01/06 06:01:55;;;;;;;157.40;52.72;;;;;;;2.61;94.64;97269.53;5028272;28;20446;-62
2021/01/06 06:05:06;;;;;;;147.27;54.20;;;;;;;2.69;94.54;97272.31;5046094;28;20048;-61
2021/01/06 06:08:07;;;;;;;134.80;58.10;;;;;;;2.81;93.66;97277.22;5038944;28;20530;-61
2021/01/06 06:11:06;;;;;;;124.10;58.75;;;;;;;2.85;94.45;97278.16;5017988;28;20056;-60
2021/01/06 06:13:42;;;;;;;150.77;69.22;;;;;;;2.86;94.97;97271.59;5046916;28;20515;-61
2021/01/06 06:16:35;;;;;;;158.43;68.78;;;;;;;2.83;94.87;97337.84;5040405;28;20527;-58
2021/01/06 06:19:28;;;;;;;173.35;77.28;;;;;;;2.87;93.71;97278.66;5046247;28;20044;-61
2021/01/06 06:22:15;;;;;;;101.38;47.47;;;;;;;2.32;95.28;97291.88;5037576;28;20127;-62
2021/01/06 06:24:50;;;;;;;134.02;54.05;;;;;;;1.87;99.03;97308.53;5045062;28;20294;-60
2021/01/06 06:27:41;;;;;;;108.20;47.92;;;;;;;1.93;100.00;97315.53;5017167;28;20038;-62
2021/01/06 06:30:24;;;;;;;113.63;49.10;;;;;;;1.92;99.51;97330.28;5045864;28;20420;-57
2021/01/06 06:32:51;;;;;;;;;;;;;;;2.20;99.38;97318.13;5046716;28;20111;-60
2021/01/06 06:35:36;;;;;;;103.35;46.40;;;;;;;1.68;98.65;97221.34;5030591;28;19936;-61
2021/01/06 06:38:08;;;;;;;66.32;30.42;;;;;;;2.20;96.99;97293.53;5026479;28;20088;-61
2021/01/06 06:40:56;;;;;;;70.72;29.10;;;;;;;2.54;95.58;97338.34;5036354;28;20041;-62
2021/01/06 06:43:33;;;;;;;69.65;28.15;;;;;;;2.61;96.34;97333.22;5046101;28;20045;-62
2021/01/06 06:46:11;;;;;;;73.32;29.92;;;;;;;2.75;95.33;97327.69;5045631;28;20083;-61
2021/01/06 06:49:00;;;;;;;63.38;27.20;;;;;;;2.02;93.32;97198.94;5046109;28;20072;-60
2021/01/06 06:51:50;;;;;;;57.15;23.70;;;;;;;2.84;92.84;97337.56;5034687;28;20557;-58
2021/01/06 06:54:21;;;;;;;51.15;21.13;;;;;;;2.64;91.98;97282.59;5045676;28;20128;-61
2021/01/06 06:56:51;;;;;;;72.63;34.22;;;;;;;3.01;92.03;97332.19;5044855;28;20044;-60
2021/01/06 06:59:31;;;;;;;63.95;26.50;;;;;;;3.04;91.00;97341.66;5045850;28;20048;-60
2021/01/06 07:02:02;;;;;;;97.53;38.17;;;;;;;2.69;90.75;97269.56;5027232;28;20059;-60
2021/01/06 07:04:47;;;;;;;237.38;86.25;;;;;;;2.88;90.46;97293.94;5045560;28;20055;-61
2021/01/06 07:07:41;;;;;;;200.05;73.60;;;;;;;3.41;90.67;97335.72;5045190;28;20082;-61
2021/01/06 07:10:15;;;;;;;;;;;;;;;3.50;90.39;97339.28;5031029;28;20052;-61
2021/01/06 07:12:41;;;;;;;;;;;;;;;3.61;90.15;97335.13;5044304;28;19992;-62
2021/01/06 07:15:18;;;;;;;132.52;53.20;;;;;;;3.58;90.64;97338.50;5042079;28;19999;-61
2021/01/06 07:17:43;;;;;;;129.93;54.85;;;;;;;3.50;90.99;97328.31;5042637;28;20025;-59
2021/01/06 07:20:28;;;;;;;140.82;60.15;;;;;;;3.61;91.12;97321.44;5043080;28;20029;-59
2021/01/06 07:23:02;;;;;;;110.40;51.08;;;;;;;3.90;90.39;97337.28;5042894;28;20581;-59
2021/01/06 07:25:35;;;;;;;125.45;57.42;;;;;;;4.01;91.11;97336.66;4859397;28;5001164;-62
2021/01/06 07:28:03;;;;;;;110.57;48.88;;;;;;;4.07;89.41;97343.59;5043436;28;20078;-59
2021/01/06 07:30:38;;;;;;;110.03;51.85;;;;;;;3.51;88.35;97247.78;5042292;28;20028;-59
2021/01/06 07:33:19;;;;;;;72.85;36.75;;;;;;;3.66;89.28;97354.16;5041758;28;20041;-58
2021/01/06 07:35:45;;;;;;;52.10;26.17;;;;;;;3.12;93.32;97406.59;5041160;28;20041;-59
2021/01/06 07:38:11;;;;;;;60.38;30.63;;;;;;;3.38;94.50;97346.50;5042514;28;20098;-59
2021/01/06 07:40:44;;;;;;;85.68;36.92;;;;;;;2.65;91.41;97170.16;5031994;28;20068;-59
2021/01/06 07:43:09;;;;;;;51.22;23.90;;;;;;;3.89;91.60;97347.41;5041423;28;20047;-59
2021/01/06 07:45:42;;;;;;;50.72;22.70;;;;;;;4.04;90.64;97366.16;5042490;28;20053;-58
2021/01/06 07:48:16;;;;;;;53.33;23.77;;;;;;;4.13;89.13;97369.72;5042132;28;20072;-62
2021/01/06 07:50:56;;;;;;;96.72;50.03;;;;;;;4.26;88.39;97367.94;5042315;28;20037;-59
2021/01/06 07:53:25;;;;;;;69.85;33.97;;;;;;;4.07;88.31;97327.16;5031314;28;20485;-58
2021/01/06 07:56:04;;;;;;;51.40;26.70;;;;;;;3.92;88.00;97289.25;5030723;28;20524;-60
2021/01/06 07:58:40;;;;;;;109.88;56.63;;;;;;;4.59;88.03;97356.16;5042804;28;20672;-60
2021/01/06 08:01:40;;;;;;;77.60;38.22;;;;;;;4.48;88.50;97332.13;5041512;28;20423;-60
2021/01/06 08:04:15;;;;;;;76.38;34.92;;;;;;;4.65;87.06;97297.25;5042088;28;20151;-60
2021/01/06 08:06:56;;;;;;;72.80;37.75;;;;;;;4.99;86.16;97353.19;5041305;28;20029;-60
2021/01/06 08:09:35;;;;;;;74.38;36.00;;;;;;;5.35;85.56;97350.81;5041898;28;20033;-60
2021/01/06 08:12:25;;;;;;;86.55;43.65;;;;;;;5.57;82.80;97348.63;5041808;28;20056;-61
2021/01/06 08:15:13;;;;;;;83.85;45.55;;;;;;;5.74;81.51;97353.22;5034937;28;20661;-60
2021/01/06 08:18:04;;;;;;;65.03;37.45;;;;;;;5.88;80.77;97349.13;5041911;28;20415;-60
2021/01/06 08:20:43;;;;;;;80.13;42.03;;;;;;;5.57;80.78;97265.38;5041638;28;20039;-61
2021/01/06 08:23:14;;;;;;;102.05;49.97;;;;;;;6.43;79.61;97351.66;5041686;28;20302;-58
2021/01/06 08:25:41;;;;;;;83.18;40.42;;;;;;;5.90;78.88;97230.59;5041258;28;20040;-60
2021/01/06 08:28:18;;;;;;;84.47;40.00;;;;;;;6.81;77.40;97338.50;5041510;28;20052;-59
2021/01/06 08:30:44;;;;;;;87.82;47.13;;;;;;;7.00;75.88;97346.28;5041636;28;20039;-60
2021/01/06 08:33:13;;;;;;;85.60;46.22;;;;;;;7.06;75.78;97362.25;5048314;28;20536;-60
2021/01/06 08:35:45;;;;;;;126.60;66.68;;;;;;;6.98;77.02;97349.38;5040845;28;20029;-59
2021/01/06 08:38:29;;;;;;;161.68;87.15;;;;;;;7.00;76.33;97380.09;5042315;28;20043;-61
2021/01/06 08:40:55;;;;;;;86.97;46.33;;;;;;;6.54;76.41;97361.13;5031871;28;20500;-61
2021/01/06 08:43:21;;;;;;;53.33;31.05;;;;;;;6.65;75.02;97356.81;5041878;28;20122;-61
2021/01/06 08:45:59;;;;;;;35.63;19.95;;;;;;;6.67;76.54;97354.50;5040520;28;20520;-61
2021/01/06 08:48:36;;;;;;;44.50;21.23;;;;;;;6.73;76.19;97350.44;5032006;28;20512;-65
2021/01/06 08:51:15;;;;;;;26.52;14.95;;;;;;;6.81;75.95;97346.75;5040406;28;20093;-63
2021/01/06 08:53:43;;;;;;;27.67;15.30;;;;;;;6.64;76.91;97311.16;5041431;28;20083;-63
2021/01/06 08:56:18;;;;;;;30.33;17.95;;;;;;;6.81;76.29;97294.44;5039317;28;20052;-61
2021/01/06 08:58:49;;;;;;;44.00;25.45;;;;;;;7.29;75.38;97343.34;5040631;28;20515;-62
2021/01/06 09:01:29;;;;;;;51.20;28.60;;;;;;;7.41;74.46;97346.91;5039692;28;20083;-64
2021/01/06 09:04:07;;;;;;;44.90;23.20;;;;;;;7.50;73.41;97350.41;5041272;28;20032;-67
2021/01/06 09:06:32;;;;;;;35.17;19.08;;;;;;;7.52;72.18;97348.06;5041292;28;20068;-62
2021/01/06 09:09:24;;;;;;;26.70;15.18;;;;;;;7.66;71.85;97337.56;5041173;28;20118;-61
2021/01/06 09:11:54;;;;;;;19.00;11.32;;;;;;;7.71;71.97;97337.28;5040633;28;20048;-62
2021/01/06 09:14:32;;;;;;;19.35;9.60;;;;;;;7.69;70.49;97341.56;5030596;28;20083;-62
2021/01/06 09:17:13;;;;;;;20.05;11.32;;;;;;;7.88;68.76;97338.22;5041077;28;20121;-61
2021/01/06 09:19:50;;;;;;;13.77;8.57;;;;;;;8.02;67.96;97344.19;5041102;28;20648;-62
2021/01/06 09:22:17;;;;;;;14.55;9.40;;;;;;;7.86;69.43;97332.22;5040307;28;20044;-62
2021/01/06 09:24:44;;;;;;;13.50;8.35;;;;;;;6.48;71.00;97246.88;5041174;28;20033;-63
2021/01/06 09:27:16;;;;;;;14.65;9.63;;;;;;;7.29;70.57;97327.63;5039266;28;20048;-62
2021/01/06 09:29:41;;;;;;;20.88;12.60;;;;;;;6.88;71.05;97244.34;5041117;28;20029;-62
2021/01/06 09:32:14;;;;;;;18.83;11.50;;;;;;;7.79;70.13;97319.03;5042368;28;20110;-63
2021/01/06 09:34:44;;;;;;;17.45;9.95;;;;;;;7.92;69.58;97314.31;5042702;28;20115;-63
2021/01/06 09:37:19;;;;;;;14.13;9.10;;;;;;;7.85;68.03;97281.00;5043141;28;20044;-63
2021/01/06 09:39:46;;;;;;;13.30;7.72;;;;;;;8.15;64.80;97276.81;5046303;28;20028;-62
2021/01/06 09:42:13;;;;;;;14.65;9.82;;;;;;;8.69;65.63;97297.34;5028619;28;20147;-63
2021/01/06 09:44:39;;;;;;;20.90;12.10;;;;;;;9.00;66.72;97275.31;5028935;28;20450;-63
2021/01/06 09:47:38;;;;;;;22.15;12.52;;;;;;;9.32;64.83;97270.63;5023717;28;20057;-66
2021/01/06 09:50:30;;;;;;;24.30;16.45;;;;;;;9.35;66.70;97276.25;5039366;28;20044;-64
2021/01/06 09:52:58;;;;;;;27.58;16.08;;;;;;;9.37;65.64;97278.66;5038563;28;20049;-62
2021/01/06 09:55:26;;;;;;;35.50;18.90;;;;;;;9.19;64.45;97273.47;5028913;28;20029;-61
2021/01/06 09:58:17;;;;;;;50.35;26.48;;;;;;;9.20;65.64;97236.38;5028493;28;20044;-61
2021/01/06 10:01:07;;;;;;;20.77;11.20;;;;;;;9.51;64.10;97277.03;5040073;28;20519;-65
2021/01/06 10:03:37;;;;;;;16.63;10.35;;;;;;;8.92;65.09;97229.31;5044516;28;20037;-61
2021/01/06 10:06:14;;;;;;;16.88;10.73;;;;;;;9.39;66.07;97277.13;5045918;28;20028;-64
2021/01/06 10:08:45;;;;;;;24.05;13.80;;;;;;;9.37;67.09;97267.59;5046149;28;20075;-63
2021/01/06 10:11:19;;;;;;;22.85;14.82;;;;;;;9.52;68.11;97264.81;5045177;28;20119;-64
2021/01/06 10:13:58;;;;;;;18.15;11.25;;;;;;;8.43;68.41;97073.41;5046358;28;20028;-65
2021/01/06 10:16:32;;;;;;;20.55;11.45;;;;;;;9.65;68.08;97230.38;5045725;28;20032;-63
2021/01/06 10:19:17;;;;;;;28.35;14.30;;;;;;;9.92;67.42;97250.75;5045119;28;20041;-62
2021/01/06 10:22:07;;;;;;;105.57;42.15;;;;;;;9.63;66.01;97187.63;5045956;28;20584;-64
2021/01/06 10:25:03;;;;;;;29.00;15.35;;;;;;;10.30;63.76;97246.09;5027239;28;20025;-62
2021/01/06 10:27:59;;;;;;;21.88;12.45;;;;;;;10.43;62.72;97244.00;5044238;28;20102;-63
2021/01/06 10:30:29;;;;;;;22.30;14.05;;;;;;;10.40;63.51;97228.13;5044449;28;20037;-64
2021/01/06 10:33:16;;;;;;;26.40;15.55;;;;;;;10.59;63.20;97242.72;5027120;28;20060;-63
2021/01/06 10:36:04;;;;;;;11.07;7.43;;;;;;;10.29;60.20;97214.03;5044242;28;20036;-63
2021/01/06 10:38:48;;;;;;;14.77;8.55;;;;;;;10.83;60.56;97229.75;5024147;28;20079;-63
2021/01/06 10:41:33;;;;;;;15.60;9.75;;;;;;;10.84;60.60;97225.81;5046042;28;20041;-63
2021/01/06 10:44:00;;;;;;;18.17;9.07;;;;;;;10.37;61.75;97174.25;5028265;28;20052;-63
2021/01/06 10:46:52;;;;;;;18.67;9.15;;;;;;;10.83;62.61;97202.81;5045085;28;20057;-65
2021/01/06 10:49:20;;;;;;;11.40;8.43;;;;;;;10.92;62.40;97199.81;5037298;28;20056;-63
2021/01/06 10:51:58;;;;;;;10.45;7.13;;;;;;;11.08;60.61;97192.19;5044628;28;20041;-62
2021/01/06 10:54:37;;;;;;;16.23;9.32;;;;;;;11.32;60.88;97197.34;5027503;28;20041;-63
2021/01/06 10:57:34;;;;;;;13.73;9.20;;;;;;;11.46;59.27;97197.59;5044194;28;20092;-66
2021/01/06 11:00:08;;;;;;;13.98;10.48;;;;;;;11.32;60.81;97191.78;5044901;28;20499;-62
2021/01/06 11:03:11;;;;;;;14.75;9.48;;;;;;;11.46;61.76;97189.28;5045286;28;20067;-62
2021/01/06 11:05:52;;;;;;;15.00;9.70;;;;;;;11.62;60.55;97184.34;5022821;28;20048;-62
2021/01/06 11:08:36;;;;;;;15.68;9.27;;;;;;;11.72;60.77;97183.75;5026234;28;20061;-63
2021/01/06 11:11:16;;;;;;;21.98;15.18;;;;;;;11.58;60.85;97150.22;5039180;28;20427;-64
2021/01/06 11:14:01;;;;;;;17.92;9.48;;;;;;;11.83;57.31;97168.03;5045203;28;20072;-63
2021/01/06 11:16:35;;;;;;;32.75;17.27;;;;;;;11.94;55.72;97172.56;5045126;28;20054;-62
2021/01/06 11:19:01;;;;;;;21.08;13.00;;;;;;;11.58;55.32;97089.16;5044995;28;20037;-65
2021/01/06 11:21:39;;;;;;;16.33;11.75;;;;;;;12.08;54.95;97185.84;5026937;28;20029;-63
2021/01/06 11:24:39;;;;;;;21.15;13.05;;;;;;;12.22;52.37;97160.25;5026877;28;20040;-63
2021/01/06 11:27:25;;;;;;;14.38;8.40;;;;;;;11.78;52.46;97093.44;5041559;28;20044;-66
2021/01/06 11:30:00;;;;;;;15.95;10.05;;;;;;;12.17;51.96;97161.38;5043424;28;20549;-63
2021/01/06 11:32:32;;;;;;;17.00;8.90;;;;;;;12.22;51.96;97130.47;5042921;28;20047;-61
2021/01/06 11:35:12;;;;;;;14.55;9.30;;;;;;;12.35;52.23;97122.69;5013448;28;20526;-61
2021/01/06 11:37:40;;;;;;;13.82;8.55;;;;;;;12.64;51.52;97153.19;5020454;28;20036;-63
2021/01/06 11:40:25;;;;;;;14.75;8.27;;;;;;;12.86;51.03;97138.34;5024070;28;20106;-61
2021/01/06 11:43:29;;;;;;;37.15;20.83;;;;;;;12.94;51.49;97147.53;5042949;28;20048;-60
2021/01/06 11:45:55;;;;;;;12.23;8.73;;;;;;;12.53;51.80;97096.72;5035991;28;20232;-60
2021/01/06 11:48:25;;;;;;;7.45;5.55;;;;;;;12.09;51.66;97151.34;5041092;28;20045;-62
2021/01/06 11:50:51;;;;;;;8.57;5.38;;;;;;;11.90;53.08;97154.28;5040926;28;20064;-65
2021/01/06 11:53:26;;;;;;;11.90;6.82;;;;;;;12.27;53.15;97143.22;5040290;28;20028;-61
2021/01/06 11:56:16;;;;;;;7.90;5.68;;;;;;;11.93;53.43;97147.97;5023521;28;20076;-65
2021/01/06 11:59:13;;;;;;;6.07;3.92;;;;;;;11.27;54.35;97143.00;5016374;28;20044;-64
2021/01/06 12:02:16;;;;;;;7.05;4.32;;;;;;;11.49;54.29;97139.38;5037500;28;20040;-64
2021/01/06 12:05:06;;;;;;;6.45;3.95;;;;;;;11.26;55.35;97144.19;5037946;28;20570;-63